createdAt,value
2022-09-13T00:01:04.201Z,98.48
2022-09-13T00:03:31.078Z,98.17
2022-09-13T00:05:58.103Z,98.17
2022-09-13T00:08:24.781Z,98.79
2022-09-13T00:10:51.437Z,98.94
2022-09-13T00:13:18.416Z,98.42
2022-09-13T00:15:50.388Z,98.28
2022-09-13T00:18:18.495Z,98.19
2022-09-13T00:20:45.839Z,97.58
2022-09-13T00:23:13.474Z,97.90
2022-09-13T00:25:40.446Z,97.74
2022-09-13T00:28:07.686Z,97.16
2022-09-13T00:30:34.754Z,98.13
2022-09-13T00:33:04.765Z,97.95
2022-09-13T00:35:32.184Z,97.54
2022-09-13T00:38:02.120Z,97.69
2022-09-13T00:40:30.536Z,98.19
2022-09-13T00:42:57.404Z,98.33
2022-09-13T00:45:24.210Z,98.63
2022-09-13T00:47:59.345Z,98.10
2022-09-13T00:50:34.870Z,98.21
2022-09-13T00:53:39.001Z,98.76
2022-09-13T00:56:13.666Z,98.59
2022-09-13T00:58:45.502Z,99.61
2022-09-13T01:01:14.593Z,99.92
2022-09-13T01:03:43.474Z,100.00
2022-09-13T01:06:18.166Z,100.00
2022-09-13T01:08:49.109Z,100.00
2022-09-13T01:11:25.318Z,100.00
2022-09-13T01:13:52.181Z,99.22
2022-09-13T01:16:18.851Z,99.85
2022-09-13T01:18:45.523Z,99.19
2022-09-13T01:21:31.627Z,99.63
2022-09-13T01:24:04.495Z,100.00
2022-09-13T01:26:49.897Z,99.75
2022-09-13T01:29:36.231Z,99.64
2022-09-13T01:32:53.954Z,99.22
2022-09-13T01:35:35.706Z,99.03
2022-09-13T01:38:23.940Z,99.74
2022-09-13T01:40:53.520Z,99.64
2022-09-13T01:43:50.682Z,99.61
2022-09-13T01:46:54.856Z,100.00
2022-09-13T01:49:21.816Z,100.00
2022-09-13T01:52:01.691Z,100.00
2022-09-13T01:54:49.077Z,100.00
2022-09-13T01:57:40.427Z,100.00
2022-09-13T02:00:12.383Z,100.00
2022-09-13T02:02:41.926Z,100.00
2022-09-13T02:05:47.942Z,100.00
2022-09-13T02:08:40.523Z,100.00
2022-09-13T02:11:13.312Z,100.00
2022-09-13T02:13:46.536Z,100.00
2022-09-13T02:16:19.631Z,100.00
2022-09-13T02:18:54.998Z,100.00
2022-09-13T02:21:28.034Z,100.00
2022-09-13T02:24:06.619Z,100.00
2022-09-13T02:26:36.823Z,100.00
2022-09-13T02:29:10.317Z,100.00
2022-09-13T02:31:47.719Z,100.00
2022-09-13T02:34:47.088Z,100.00
2022-09-13T02:37:14.998Z,100.00
2022-09-13T02:39:47.799Z,100.00
2022-09-13T02:42:19.229Z,100.00
2022-09-13T02:44:49.904Z,100.00
2022-09-13T02:47:44.686Z,100.00
2022-09-13T02:50:28.424Z,100.00
2022-09-13T02:53:36.473Z,100.00
2022-09-13T02:56:22.065Z,100.00
2022-09-13T02:59:30.295Z,100.00
2022-09-13T03:02:03.808Z,100.00
2022-09-13T03:04:30.545Z,100.00
2022-09-13T03:06:57.187Z,100.00
2022-09-13T03:09:24.154Z,100.00
2022-09-13T03:11:50.776Z,100.00
2022-09-13T03:14:35.902Z,100.00
2022-09-13T03:17:44.126Z,100.00
2022-09-13T03:20:19.243Z,100.00
2022-09-13T03:23:13.775Z,100.00
2022-09-13T03:25:49.179Z,100.00
2022-09-13T03:28:31.847Z,100.00
2022-09-13T03:31:10.982Z,100.00
2022-09-13T03:33:59.381Z,100.00
2022-09-13T03:36:51.644Z,100.00
2022-09-13T03:39:27.253Z,100.00
2022-09-13T03:42:00.030Z,100.00
2022-09-13T03:44:29.575Z,100.00
2022-09-13T03:46:59.069Z,100.00
2022-09-13T03:49:27.483Z,100.00
2022-09-13T03:51:54.897Z,100.00
2022-09-13T03:54:32.564Z,100.00
2022-09-13T03:57:11.444Z,100.00
2022-09-13T03:59:41.821Z,100.00
2022-09-13T04:02:11.218Z,100.00
2022-09-13T04:04:42.744Z,100.00
2022-09-13T04:07:11.526Z,100.00
2022-09-13T04:09:38.222Z,100.00
2022-09-13T04:12:05.194Z,100.00
2022-09-13T04:14:31.895Z,100.00
2022-09-13T04:16:58.867Z,100.00
2022-09-13T04:19:26.188Z,100.00
2022-09-13T04:21:54.785Z,100.00
2022-09-13T04:24:25.414Z,100.00
2022-09-13T04:26:53.678Z,100.00
2022-09-13T04:29:21.780Z,100.00
2022-09-13T04:31:50.027Z,100.00
2022-09-13T04:34:18.587Z,100.00
2022-09-13T04:36:46.196Z,100.00
2022-09-13T04:39:16.129Z,100.00
2022-09-13T04:41:46.025Z,100.00
2022-09-13T04:44:14.214Z,100.00
2022-09-13T04:46:41.633Z,100.00
2022-09-13T04:49:10.715Z,100.00
2022-09-13T04:51:37.459Z,100.00
2022-09-13T04:54:04.481Z,100.00
2022-09-13T04:56:31.125Z,100.00
2022-09-13T04:58:57.771Z,100.00
2022-09-13T05:01:27.951Z,100.00
2022-09-13T05:03:55.543Z,100.00
2022-09-13T05:06:22.972Z,100.00
2022-09-13T05:08:53.008Z,100.00
2022-09-13T05:11:19.616Z,100.00
2022-09-13T05:13:53.120Z,100.00
2022-09-13T05:16:20.317Z,100.00
2022-09-13T05:18:47.224Z,100.00
2022-09-13T05:21:14.448Z,100.00
2022-09-13T05:23:41.187Z,100.00
2022-09-13T05:26:08.621Z,100.00
2022-09-13T05:28:36.787Z,100.00
2022-09-13T05:31:06.341Z,100.00
2022-09-13T05:33:38.497Z,100.00
2022-09-13T05:36:06.063Z,100.00
2022-09-13T05:38:33.533Z,100.00
2022-09-13T05:41:02.661Z,100.00
2022-09-13T05:43:32.279Z,99.48
2022-09-13T05:46:07.198Z,97.87
2022-09-13T05:48:35.455Z,97.75
2022-09-13T05:51:22.629Z,97.10
2022-09-13T05:53:51.763Z,96.07
2022-09-13T05:56:21.202Z,95.01
2022-09-13T05:58:49.507Z,94.06
2022-09-13T06:01:19.676Z,94.47
2022-09-13T06:03:50.734Z,95.21
2022-09-13T06:06:17.626Z,94.71
2022-09-13T06:08:44.805Z,94.75
2022-09-13T06:11:13.366Z,93.21
2022-09-13T06:13:40.768Z,93.29
2022-09-13T06:16:09.894Z,93.05
2022-09-13T06:18:37.116Z,93.63
2022-09-13T06:21:05.926Z,94.46
2022-09-13T06:23:32.589Z,94.92
2022-09-13T06:26:07.752Z,94.48
2022-09-13T06:28:37.429Z,94.16
2022-09-13T06:31:12.865Z,94.51
2022-09-13T06:33:42.048Z,95.17
2022-09-13T06:36:20.392Z,95.59
2022-09-13T06:38:49.040Z,96.26
2022-09-13T06:41:21.910Z,96.72
2022-09-13T06:43:54.420Z,97.53
2022-09-13T06:46:24.915Z,97.75
2022-09-13T06:48:55.635Z,98.12
2022-09-13T06:51:24.651Z,97.96
2022-09-13T06:53:53.360Z,98.27
2022-09-13T06:56:22.641Z,97.90
2022-09-13T06:58:51.957Z,97.47
2022-09-13T07:01:21.332Z,97.00
2022-09-13T07:04:09.350Z,96.79
2022-09-13T07:06:41.414Z,96.50
2022-09-13T07:09:10.794Z,95.01
2022-09-13T07:11:39.112Z,92.95
2022-09-13T07:14:06.940Z,92.04
2022-09-13T07:16:36.306Z,91.25
2022-09-13T07:19:07.958Z,88.18
2022-09-13T07:21:35.639Z,85.21
2022-09-13T07:24:02.497Z,83.23
2022-09-13T07:26:29.124Z,81.32
2022-09-13T07:28:59.368Z,79.79
2022-09-13T07:31:29.225Z,78.92
2022-09-13T07:34:04.450Z,78.12
2022-09-13T07:36:33.631Z,77.58
2022-09-13T07:39:01.617Z,74.96
2022-09-13T07:41:30.378Z,74.04
2022-09-13T07:43:59.338Z,73.59
2022-09-13T07:46:28.546Z,73.15
2022-09-13T07:48:57.021Z,71.92
2022-09-13T07:51:32.618Z,70.74
2022-09-13T07:54:03.062Z,70.27
2022-09-13T07:56:32.281Z,68.92
2022-09-13T07:59:01.022Z,69.73
2022-09-13T08:01:34.736Z,70.76
2022-09-13T08:04:04.862Z,71.75
2022-09-13T08:06:32.905Z,71.16
2022-09-13T08:09:00.007Z,71.14
2022-09-13T08:11:37.060Z,69.18
2022-09-13T08:14:05.539Z,66.99
2022-09-13T08:16:32.533Z,64.78
2022-09-13T08:19:02.088Z,62.99
2022-09-13T08:21:36.387Z,60.46
2022-09-13T08:24:04.270Z,59.18
2022-09-13T08:26:33.096Z,58.51
2022-09-13T08:29:02.300Z,57.54
2022-09-13T08:31:29.722Z,56.00
2022-09-13T08:33:57.833Z,55.71
2022-09-13T08:36:26.344Z,56.08
2022-09-13T08:38:55.917Z,54.71
2022-09-13T08:41:45.382Z,53.78
2022-09-13T08:44:18.170Z,51.97
2022-09-13T08:46:46.841Z,53.12
2022-09-13T08:49:40.818Z,51.94
2022-09-13T08:52:33.231Z,51.73
2022-09-13T08:55:03.974Z,50.43
2022-09-13T08:58:00.502Z,49.46
2022-09-13T09:00:38.230Z,49.08
2022-09-13T09:03:18.635Z,47.31
2022-09-13T09:05:50.889Z,48.19
2022-09-13T09:08:34.583Z,46.73
2022-09-13T09:11:27.619Z,47.82
2022-09-13T09:14:14.308Z,48.56
2022-09-13T09:16:55.730Z,48.59
2022-09-13T09:19:28.597Z,47.95
2022-09-13T09:21:55.353Z,47.97
2022-09-13T09:24:25.561Z,48.45
2022-09-13T09:27:00.043Z,47.75
2022-09-13T09:29:33.495Z,48.13
2022-09-13T09:32:20.161Z,48.17
2022-09-13T09:34:56.122Z,48.01
2022-09-13T09:37:28.810Z,47.48
2022-09-13T09:40:03.143Z,44.71
2022-09-13T09:42:33.670Z,45.23
2022-09-13T09:45:24.448Z,45.91
2022-09-13T09:47:53.261Z,45.12
2022-09-13T09:50:23.305Z,44.65
2022-09-13T09:52:59.242Z,45.03
2022-09-13T09:55:50.442Z,46.02
2022-09-13T09:58:18.966Z,47.12
2022-09-13T10:00:59.158Z,45.03
2022-09-13T10:03:31.846Z,46.65
2022-09-13T10:06:22.113Z,47.05
2022-09-13T10:09:02.594Z,47.95
2022-09-13T10:12:02.413Z,49.33
2022-09-13T10:14:37.522Z,51.17
2022-09-13T10:17:24.025Z,51.40
2022-09-13T10:20:02.185Z,52.31
2022-09-13T10:22:31.286Z,52.61
2022-09-13T10:25:14.700Z,53.37
2022-09-13T10:27:51.795Z,53.34
2022-09-13T10:30:39.801Z,53.39
2022-09-13T10:33:14.314Z,53.25
2022-09-13T10:35:41.288Z,54.09
2022-09-13T10:38:24.534Z,54.55
2022-09-13T10:40:51.332Z,53.68
2022-09-13T10:43:21.950Z,53.26
2022-09-13T10:45:52.241Z,53.60
2022-09-13T10:48:20.313Z,54.16
2022-09-13T10:51:08.751Z,52.66
2022-09-13T10:53:45.382Z,53.19
2022-09-13T10:56:21.482Z,51.99
2022-09-13T10:58:48.142Z,51.58
2022-09-13T11:01:40.648Z,48.45
2022-09-13T11:04:10.522Z,49.78
2022-09-13T11:06:59.656Z,48.38
2022-09-13T11:09:42.998Z,47.95
2022-09-13T11:12:46.765Z,48.15
2022-09-13T11:15:31.258Z,49.06
2022-09-13T11:18:30.082Z,48.53
2022-09-13T11:21:26.860Z,48.42
2022-09-13T11:24:14.434Z,46.95
2022-09-13T11:27:02.293Z,46.54
2022-09-13T11:29:47.456Z,45.01
2022-09-13T11:32:23.214Z,44.67
2022-09-13T11:35:27.542Z,42.94
2022-09-13T11:37:54.594Z,44.39
2022-09-13T11:40:36.547Z,44.86
2022-09-13T11:43:41.193Z,44.28
2022-09-13T11:46:25.280Z,44.38
2022-09-13T11:49:36.604Z,43.54
2022-09-13T11:52:14.494Z,43.57
2022-09-13T11:54:50.739Z,43.05
2022-09-13T11:57:25.154Z,43.46
2022-09-13T11:59:58.902Z,43.82
2022-09-13T12:02:47.339Z,42.42
2022-09-13T12:05:22.539Z,42.49
2022-09-13T12:07:55.179Z,42.66
2022-09-13T12:10:30.065Z,43.04
2022-09-13T12:13:07.242Z,42.36
2022-09-13T12:15:40.785Z,41.99
2022-09-13T12:18:26.438Z,42.61
2022-09-13T12:21:00.985Z,43.39
2022-09-13T12:23:36.098Z,43.00
2022-09-13T12:26:13.345Z,41.53
2022-09-13T12:28:49.557Z,41.38
2022-09-13T12:31:24.292Z,42.47
2022-09-13T12:33:51.225Z,42.83
2022-09-13T12:36:38.716Z,42.41
2022-09-13T12:39:24.067Z,42.24
2022-09-13T12:42:09.576Z,41.34
2022-09-13T12:44:57.899Z,40.63
2022-09-13T12:47:55.971Z,40.71
2022-09-13T12:50:46.144Z,40.97
2022-09-13T12:53:50.884Z,40.60
2022-09-13T12:56:27.834Z,39.83
2022-09-13T12:59:10.010Z,39.46
2022-09-13T13:01:36.931Z,39.93
2022-09-13T13:04:22.305Z,39.79
2022-09-13T13:06:57.198Z,39.53
2022-09-13T13:09:44.399Z,39.40
2022-09-13T13:12:29.195Z,39.19
2022-09-13T13:14:57.093Z,39.33
2022-09-13T13:17:48.118Z,39.58
2022-09-13T13:20:39.621Z,39.52
2022-09-13T13:23:33.158Z,38.51
2022-09-13T13:26:23.567Z,39.61
2022-09-13T13:29:13.140Z,39.35
2022-09-13T13:31:41.946Z,40.56
2022-09-13T13:34:14.712Z,39.67
2022-09-13T13:36:41.313Z,39.40
2022-09-13T13:39:35.019Z,39.32
2022-09-13T13:42:10.367Z,40.40
2022-09-13T13:44:58.050Z,39.90
2022-09-13T13:47:30.551Z,39.68
2022-09-13T13:50:00.214Z,40.57
2022-09-13T13:52:26.855Z,41.03
2022-09-13T13:55:31.544Z,40.05
2022-09-13T13:58:05.919Z,39.76
2022-09-13T14:00:35.181Z,40.32
2022-09-13T14:03:01.796Z,40.33
2022-09-13T14:05:46.756Z,41.67
2022-09-13T14:08:28.690Z,42.45
2022-09-13T14:11:15.168Z,41.60
2022-09-13T14:13:47.895Z,42.01
2022-09-13T14:16:17.862Z,42.97
2022-09-13T14:18:52.675Z,42.82
2022-09-13T14:21:30.311Z,41.88
2022-09-13T14:24:08.255Z,41.97
2022-09-13T14:26:35.349Z,42.48
2022-09-13T14:29:06.776Z,41.78
2022-09-13T14:31:33.576Z,41.78
2022-09-13T14:34:00.383Z,41.69
2022-09-13T14:36:27.874Z,41.63
2022-09-13T14:39:00.575Z,41.96
2022-09-13T14:41:33.838Z,40.52
2022-09-13T14:44:28.133Z,41.26
2022-09-13T14:47:04.594Z,41.93
2022-09-13T14:49:38.933Z,42.03
2022-09-13T14:52:15.452Z,42.64
2022-09-13T14:54:51.206Z,42.87
2022-09-13T14:57:30.387Z,42.65
2022-09-13T15:00:02.093Z,43.05
2022-09-13T15:02:37.612Z,43.15
2022-09-13T15:05:11.767Z,43.50
2022-09-13T15:07:40.114Z,43.41
2022-09-13T15:10:12.551Z,43.15
2022-09-13T15:13:08.004Z,43.34
2022-09-13T15:15:39.417Z,43.91
2022-09-13T15:18:09.075Z,44.36
2022-09-13T15:20:45.222Z,44.03
2022-09-13T15:23:16.309Z,44.75
2022-09-13T15:25:53.292Z,44.55
2022-09-13T15:28:23.243Z,44.82
2022-09-13T15:30:51.699Z,45.28
2022-09-13T15:33:24.987Z,45.30
2022-09-13T15:35:53.710Z,45.50
2022-09-13T15:38:31.792Z,45.59
2022-09-13T15:41:18.216Z,46.02
2022-09-13T15:43:47.868Z,47.12
2022-09-13T15:46:16.842Z,47.00
2022-09-13T15:48:52.039Z,47.55
2022-09-13T15:51:19.114Z,47.66
2022-09-13T15:53:46.986Z,48.13
2022-09-13T15:56:18.025Z,48.37
2022-09-13T15:58:44.665Z,48.90
2022-09-13T16:01:13.402Z,49.27
2022-09-13T16:03:40.651Z,50.34
2022-09-13T16:06:09.370Z,51.13
2022-09-13T16:08:36.871Z,51.85
2022-09-13T16:11:03.705Z,51.95
2022-09-13T16:13:30.314Z,52.21
2022-09-13T16:15:58.056Z,52.89
2022-09-13T16:18:25.482Z,53.08
2022-09-13T16:20:52.142Z,53.59
2022-09-13T16:23:18.765Z,53.68
2022-09-13T16:25:45.598Z,53.66
2022-09-13T16:28:21.175Z,53.56
2022-09-13T16:30:48.609Z,53.83
2022-09-13T16:33:15.303Z,54.26
2022-09-13T16:35:41.993Z,54.38
2022-09-13T16:38:10.443Z,54.44
2022-09-13T16:40:41.665Z,54.59
2022-09-13T16:43:09.120Z,54.68
2022-09-13T16:45:40.369Z,54.69
2022-09-13T16:48:08.494Z,55.27
2022-09-13T16:50:36.113Z,55.15
2022-09-13T16:53:02.862Z,55.26
2022-09-13T16:55:30.243Z,55.92
2022-09-13T16:57:56.921Z,56.52
2022-09-13T17:00:28.614Z,56.66
2022-09-13T17:02:56.001Z,56.90
2022-09-13T17:05:24.482Z,56.89
2022-09-13T17:07:52.055Z,57.51
2022-09-13T17:10:18.961Z,57.97
2022-09-13T17:12:45.596Z,58.00
2022-09-13T17:15:12.221Z,58.08
2022-09-13T17:17:38.882Z,58.21
2022-09-13T17:20:10.177Z,58.30
2022-09-13T17:22:37.459Z,58.35
2022-09-13T17:25:07.674Z,58.79
2022-09-13T17:27:34.431Z,59.30
2022-09-13T17:30:02.411Z,59.58
2022-09-13T17:32:29.117Z,59.69
2022-09-13T17:34:55.785Z,59.22
2022-09-13T17:37:22.445Z,58.81
2022-09-13T17:39:49.357Z,58.72
2022-09-13T17:42:19.032Z,58.16
2022-09-13T17:44:48.079Z,57.82
2022-09-13T17:47:14.723Z,58.06
2022-09-13T17:49:41.619Z,58.44
2022-09-13T17:52:08.303Z,58.47
2022-09-13T17:54:35.018Z,59.33
2022-09-13T17:57:01.663Z,61.92
2022-09-13T17:59:28.448Z,62.70
2022-09-13T18:01:57.992Z,62.15
2022-09-13T18:04:24.791Z,61.77
2022-09-13T18:06:52.722Z,61.40
2022-09-13T18:09:19.940Z,61.06
2022-09-13T18:11:46.935Z,61.83
2022-09-13T18:14:15.495Z,63.48
2022-09-13T18:16:43.220Z,65.80
2022-09-13T18:19:10.029Z,68.38
2022-09-13T18:21:36.710Z,70.85
2022-09-13T18:24:04.164Z,72.78
2022-09-13T18:26:32.621Z,74.85
2022-09-13T18:29:05.761Z,76.26
2022-09-13T18:31:34.405Z,76.59
2022-09-13T18:34:05.500Z,77.03
2022-09-13T18:36:36.215Z,77.54
2022-09-13T18:39:04.957Z,78.03
2022-09-13T18:41:34.676Z,78.19
2022-09-13T18:44:02.027Z,78.29
2022-09-13T18:46:31.727Z,78.64
2022-09-13T18:48:58.945Z,78.56
2022-09-13T18:51:28.759Z,78.17
2022-09-13T18:53:56.067Z,76.77
2022-09-13T18:56:24.303Z,76.80
2022-09-13T18:58:55.221Z,76.88
2022-09-13T19:01:28.726Z,76.51
2022-09-13T19:03:57.959Z,75.71
2022-09-13T19:06:26.196Z,75.19
2022-09-13T19:08:55.477Z,74.21
2022-09-13T19:11:45.160Z,72.70
2022-09-13T19:14:14.870Z,71.66
2022-09-13T19:16:41.972Z,70.86
2022-09-13T19:19:11.757Z,70.25
2022-09-13T19:21:38.506Z,69.83
2022-09-13T19:24:10.148Z,69.81
2022-09-13T19:26:40.519Z,70.21
2022-09-13T19:29:11.329Z,71.86
2022-09-13T19:34:26.090Z,76.24
2022-09-13T19:36:57.920Z,77.13
2022-09-13T19:39:29.247Z,79.21
2022-09-13T19:41:57.049Z,79.90
2022-09-13T19:44:23.771Z,80.78
2022-09-13T19:47:06.913Z,81.14
2022-09-13T19:49:38.222Z,81.94
2022-09-13T19:52:05.814Z,81.55
2022-09-13T19:54:33.232Z,81.24
2022-09-13T19:57:01.285Z,81.13
2022-09-13T19:59:28.850Z,81.12
2022-09-13T20:01:58.859Z,81.29
2022-09-13T20:04:26.251Z,81.41
2022-09-13T20:06:53.514Z,80.85
2022-09-13T20:09:21.426Z,80.86
2022-09-13T20:11:49.023Z,80.75
2022-09-13T20:14:18.738Z,81.18
2022-09-13T20:16:46.794Z,81.25
2022-09-13T20:22:07.503Z,81.18
2022-09-13T20:24:34.166Z,81.73
2022-09-13T20:27:01.264Z,81.72
2022-09-13T20:29:28.240Z,82.22
2022-09-13T20:31:55.577Z,82.83
2022-09-13T20:34:22.371Z,82.61
2022-09-13T20:36:49.083Z,82.52
2022-09-13T20:39:16.047Z,83.14
2022-09-13T20:41:44.438Z,83.19
2022-09-13T20:44:12.379Z,83.88
2022-09-13T20:46:40.743Z,83.97
2022-09-13T20:49:09.175Z,84.65
2022-09-13T20:51:37.482Z,85.00
2022-09-13T20:54:05.416Z,84.99
2022-09-13T20:56:33.951Z,85.09
2022-09-13T20:59:01.805Z,85.05
2022-09-13T21:01:34.093Z,85.46
2022-09-13T21:04:01.575Z,84.60
2022-09-13T21:06:30.336Z,84.29
2022-09-13T21:09:00.296Z,84.47
2022-09-13T21:11:32.796Z,84.66
2022-09-13T21:14:04.920Z,85.21
2022-09-13T21:16:34.617Z,85.06
2022-09-13T21:19:02.088Z,84.92
2022-09-13T21:21:34.926Z,84.98
2022-09-13T21:24:05.927Z,85.19
2022-09-13T21:26:33.337Z,85.12
2022-09-13T21:29:00.753Z,85.82
2022-09-13T21:31:30.378Z,85.47
2022-09-13T21:34:02.667Z,85.08
2022-09-13T21:36:30.601Z,83.57
2022-09-13T21:38:58.011Z,82.85
2022-09-13T21:41:26.355Z,82.90
2022-09-13T21:43:53.841Z,81.58
2022-09-13T21:46:32.077Z,80.55
2022-09-13T21:49:00.890Z,79.88
2022-09-13T21:51:30.914Z,79.58
2022-09-13T21:53:59.560Z,79.21
2022-09-13T21:56:28.265Z,79.32
2022-09-13T21:59:00.977Z,79.41
2022-09-13T22:01:32.844Z,79.56
2022-09-13T22:03:59.650Z,79.75
2022-09-13T22:06:30.292Z,79.13
2022-09-13T22:09:01.852Z,79.00
2022-09-13T22:11:31.270Z,78.64
2022-09-13T22:13:59.708Z,78.51
2022-09-13T22:16:31.441Z,78.65
2022-09-13T22:19:04.343Z,78.35
2022-09-13T22:21:36.570Z,78.33
2022-09-13T22:24:04.917Z,78.31
2022-09-13T22:26:34.582Z,78.29
2022-09-13T22:29:01.571Z,78.09
2022-09-13T22:31:32.145Z,77.98
2022-09-13T22:34:00.627Z,78.20
2022-09-13T22:36:28.362Z,78.51
2022-09-13T22:38:55.615Z,79.15
2022-09-13T22:41:29.001Z,79.92
2022-09-13T22:43:56.318Z,81.18
2022-09-13T22:46:27.713Z,81.74
2022-09-13T22:48:55.466Z,82.17
2022-09-13T22:51:23.379Z,82.30
2022-09-13T22:53:51.759Z,82.21
2022-09-13T22:56:46.245Z,81.99
2022-09-13T22:59:15.410Z,81.85
2022-09-13T23:01:42.986Z,81.57
2022-09-13T23:04:10.641Z,81.72
2022-09-13T23:06:37.935Z,81.41
2022-09-13T23:09:07.304Z,81.62
2022-09-13T23:11:36.954Z,81.90
2022-09-13T23:14:10.112Z,82.13
2022-09-13T23:16:45.640Z,82.47
2022-09-13T23:19:13.676Z,82.87
2022-09-13T23:21:41.527Z,83.14
2022-09-13T23:24:12.506Z,83.51
2022-09-13T23:26:40.187Z,83.54
2022-09-13T23:29:07.590Z,83.77
2022-09-13T23:31:36.665Z,83.83
2022-09-13T23:34:06.626Z,84.04
2022-09-13T23:36:37.397Z,84.31
2022-09-13T23:39:08.170Z,84.16
2022-09-13T23:41:35.745Z,84.31
2022-09-13T23:44:03.866Z,84.08
2022-09-13T23:46:31.397Z,83.83
2022-09-13T23:48:58.130Z,83.69
2022-09-13T23:51:26.494Z,83.56
2022-09-13T23:53:57.232Z,83.45
2022-09-13T23:56:26.011Z,83.43
2022-09-13T23:58:53.049Z,83.37
